Time;durP1;ratioP1;P1;durP2;ratioP2;P2;SDS_P1;SDS_P2;PMS_P1;PMS_P2;Temp;Humidity;BMP_temperature;BMP_pressure;BME280_temperature;BME280_humidity;BME280_pressure;Samples;Min_cycle;Max_cycle;Signal;HPM_P1;HPM_P2
2022/09/11 00:01:17;;;;;;;37.17;21.30;;;;;;;;;;5091826;28;20028;-75
2022/09/11 00:03:44;;;;;;;39.45;19.83;;;;;;;;;;5091696;28;20027;-75
2022/09/11 00:06:11;;;;;;;38.53;21.27;;;;;;;;;;5091610;28;20458;-75
2022/09/11 00:08:38;;;;;;;38.88;20.77;;;;;;;;;;5091712;28;20028;-75
2022/09/11 00:11:06;;;;;;;34.10;20.17;;;;;;;;;;5091498;28;20032;-75
2022/09/11 00:13:32;;;;;;;32.60;18.85;;;;;;;;;;5091503;28;20044;-75
2022/09/11 00:15:58;;;;;;;36.10;18.45;;;;;;;;;;5091432;28;20035;-76
2022/09/11 00:18:28;;;;;;;31.05;18.85;;;;;;;;;;5107147;28;20054;-75
2022/09/11 00:20:55;;;;;;;30.60;18.95;;;;;;;;;;5111824;28;20530;-75
2022/09/11 00:23:21;;;;;;;34.20;18.90;;;;;;;;;;5111767;28;20032;-75
2022/09/11 00:25:48;;;;;;;37.50;20.80;;;;;;;;;;5111763;28;20533;-75
2022/09/11 00:28:24;;;;;;;38.45;20.10;;;;;;;;;;5093311;28;20024;-75
2022/09/11 00:31:01;;;;;;;39.72;20.20;;;;;;;;;;5111999;28;20019;-74
2022/09/11 00:33:27;;;;;;;32.35;17.95;;;;;;;;;;5111781;28;20019;-75
2022/09/11 00:36:00;;;;;;;35.03;19.65;;;;;;;;;;5111833;28;20047;-75
2022/09/11 00:38:27;;;;;;;28.83;17.95;;;;;;;;;;5111707;28;20316;-75
2022/09/11 00:40:53;;;;;;;35.42;18.75;;;;;;;;;;5111706;28;20027;-75
2022/09/11 00:43:20;;;;;;;35.22;19.05;;;;;;;;;;5111616;28;20019;-75
2022/09/11 00:45:48;;;;;;;33.67;18.75;;;;;;;;;;5111718;28;20308;-75
2022/09/11 00:48:16;;;;;;;41.08;19.90;;;;;;;;;;5111626;28;20031;-75
2022/09/11 00:50:43;;;;;;;35.10;19.33;;;;;;;;;;5111632;28;20059;-75
2022/09/11 00:53:11;;;;;;;30.55;18.05;;;;;;;;;;5111398;28;20097;-75
2022/09/11 00:55:41;;;;;;;35.47;19.98;;;;;;;;;;5099145;28;20369;-75
2022/09/11 00:58:12;;;;;;;33.88;18.10;;;;;;;;;;5091038;28;20039;-75
2022/09/11 01:00:39;;;;;;;29.75;18.02;;;;;;;;;;5090944;28;20028;-75
2022/09/11 01:03:05;;;;;;;36.05;18.42;;;;;;;;;;5090956;28;20024;-75
2022/09/11 01:05:33;;;;;;;30.50;17.02;;;;;;;;;;5091181;28;20157;-75
2022/09/11 01:08:01;;;;;;;33.85;19.67;;;;;;;;;;5091058;28;20051;-74
2022/09/11 01:10:36;;;;;;;37.53;19.92;;;;;;;;;;5091065;28;20021;-75
2022/09/11 01:13:05;;;;;;;39.50;20.02;;;;;;;;;;5090811;28;20048;-75
2022/09/11 01:15:40;;;;;;;40.58;20.38;;;;;;;;;;5090999;28;20020;-74
2022/09/11 01:18:14;;;;;;;35.90;20.73;;;;;;;;;;5091094;28;20559;-75
2022/09/11 01:20:50;;;;;;;34.90;20.23;;;;;;;;;;5091221;28;20036;-74
2022/09/11 01:23:19;;;;;;;42.33;20.98;;;;;;;;;;5091217;28;20037;-75
2022/09/11 01:25:57;;;;;;;35.30;19.90;;;;;;;;;;5080523;28;20023;-74
2022/09/11 01:28:25;;;;;;;33.83;19.35;;;;;;;;;;5115268;28;20082;-75
2022/09/11 01:30:55;;;;;;;39.15;21.52;;;;;;;;;;5114975;28;20020;-75
2022/09/11 01:33:43;;;;;;;33.83;20.00;;;;;;;;;;5115129;28;20098;-75
2022/09/11 01:36:09;;;;;;;39.45;20.10;;;;;;;;;;5114837;28;20023;-75
2022/09/11 01:38:41;;;;;;;42.08;20.15;;;;;;;;;;5096453;28;20538;-74
2022/09/11 01:41:11;;;;;;;43.78;22.33;;;;;;;;;;5114767;28;20495;-75
2022/09/11 01:43:50;;;;;;;40.10;20.65;;;;;;;;;;5114871;28;20035;-75
2022/09/11 01:46:21;;;;;;;41.45;20.63;;;;;;;;;;5114769;28;20346;-74
2022/09/11 01:48:49;;;;;;;46.65;21.23;;;;;;;;;;5114813;28;20020;-75
2022/09/11 01:51:21;;;;;;;36.38;20.00;;;;;;;;;;5115039;28;20078;-75
2022/09/11 01:53:49;;;;;;;48.63;20.58;;;;;;;;;;5114799;28;20038;-75
2022/09/11 01:56:18;;;;;;;37.65;20.25;;;;;;;;;;5114740;28;20066;-74
2022/09/11 01:58:46;;;;;;;44.90;19.40;;;;;;;;;;5114705;28;20103;-74
2022/09/11 02:01:17;;;;;;;32.45;16.45;;;;;;;;;;5114563;28;20107;-74
2022/09/11 02:03:45;;;;;;;32.92;17.00;;;;;;;;;;5114622;28;20027;-74
2022/09/11 02:06:14;;;;;;;30.98;16.42;;;;;;;;;;5114437;28;20019;-75
2022/09/11 02:08:45;;;;;;;33.70;17.30;;;;;;;;;;5114467;28;20024;-74
2022/09/11 02:11:13;;;;;;;37.88;17.88;;;;;;;;;;5114389;28;20499;-74
2022/09/11 02:14:02;;;;;;;50.95;20.55;;;;;;;;;;5114210;28;20065;-74
2022/09/11 02:16:34;;;;;;;39.72;18.23;;;;;;;;;;5114197;28;20039;-74
2022/09/11 02:19:01;;;;;;;32.00;18.00;;;;;;;;;;5095721;28;20485;-74
2022/09/11 02:21:28;;;;;;;36.95;19.52;;;;;;;;;;5114230;28;20031;-75
2022/09/11 02:23:54;;;;;;;32.88;17.83;;;;;;;;;;5114201;28;20103;-75
2022/09/11 02:26:23;;;;;;;40.33;18.58;;;;;;;;;;5114044;28;20531;-74
2022/09/11 02:28:49;;;;;;;33.05;17.45;;;;;;;;;;5114153;28;20031;-75
2022/09/11 02:31:18;;;;;;;37.05;18.42;;;;;;;;;;5095602;28;20481;-75
2022/09/11 02:33:45;;;;;;;35.47;17.77;;;;;;;;;;5095630;28;20023;-74
2022/09/11 02:36:14;;;;;;;33.13;18.00;;;;;;;;;;5114000;28;20109;-74
2022/09/11 02:38:57;;;;;;;46.80;20.80;;;;;;;;;;5113819;28;20026;-75
2022/09/11 02:41:27;;;;;;;35.55;19.75;;;;;;;;;;5113705;28;20103;-75
2022/09/11 02:43:56;;;;;;;37.75;18.38;;;;;;;;;;5113852;28;20043;-74
2022/09/11 02:46:47;;;;;;;41.53;20.80;;;;;;;;;;5113503;28;20024;-74
2022/09/11 02:49:17;;;;;;;36.95;19.60;;;;;;;;;;5113634;28;20110;-74
2022/09/11 02:51:59;;;;;;;37.30;19.92;;;;;;;;;;5095265;28;20373;-74
2022/09/11 02:54:34;;;;;;;44.72;22.80;;;;;;;;;;5113268;28;20042;-74
2022/09/11 02:57:01;;;;;;;45.05;19.60;;;;;;;;;;5113502;28;20563;-74
2022/09/11 02:59:31;;;;;;;112.82;26.48;;;;;;;;;;5113372;28;20066;-74
2022/09/11 03:02:00;;;;;;;64.15;23.63;;;;;;;;;;5113388;28;20499;-79
2022/09/11 03:04:28;;;;;;;127.75;29.42;;;;;;;;;;5113518;28;20022;-78
2022/09/11 03:06:55;;;;;;;59.10;24.88;;;;;;;;;;5113517;28;20042;-79
2022/09/11 03:09:21;;;;;;;47.03;22.30;;;;;;;;;;5095042;28;20455;-78
2022/09/11 03:11:48;;;;;;;56.00;25.02;;;;;;;;;;5113348;28;20102;-79
2022/09/11 03:14:15;;;;;;;49.53;22.88;;;;;;;;;;5113496;28;20043;-79
2022/09/11 03:16:41;;;;;;;40.83;21.77;;;;;;;;;;5113435;28;20054;-79
2022/09/11 03:19:07;;;;;;;46.30;22.30;;;;;;;;;;5094950;28;20027;-79
2022/09/11 03:21:33;;;;;;;36.97;21.25;;;;;;;;;;5113407;28;20028;-79
2022/09/11 03:24:00;;;;;;;37.17;21.02;;;;;;;;;;5113281;28;20471;-79
2022/09/11 03:26:26;;;;;;;39.53;20.35;;;;;;;;;;5113233;28;20020;-79
2022/09/11 03:28:53;;;;;;;42.80;20.73;;;;;;;;;;5113359;28;20031;-79
2022/09/11 03:31:19;;;;;;;37.15;20.30;;;;;;;;;;5113233;28;20036;-78
2022/09/11 03:33:45;;;;;;;36.13;19.40;;;;;;;;;;5113247;28;20043;-79
2022/09/11 03:36:11;;;;;;;37.45;20.42;;;;;;;;;;5113105;28;20035;-78
2022/09/11 03:38:38;;;;;;;38.38;20.90;;;;;;;;;;5108432;28;20020;-79
2022/09/11 03:41:04;;;;;;;61.67;22.45;;;;;;;;;;5074427;28;20028;-79
2022/09/11 03:43:32;;;;;;;52.28;22.70;;;;;;;;;;5092462;28;20405;-79
2022/09/11 03:45:59;;;;;;;39.80;19.63;;;;;;;;;;5092205;28;20089;-78
2022/09/11 03:48:25;;;;;;;36.17;18.75;;;;;;;;;;5074128;28;20089;-79
2022/09/11 03:50:51;;;;;;;34.85;19.50;;;;;;;;;;5092518;28;20455;-78
2022/09/11 03:53:18;;;;;;;36.33;20.52;;;;;;;;;;5092489;28;20038;-79
2022/09/11 03:55:48;;;;;;;39.45;20.58;;;;;;;;;;5092304;28;20032;-79
2022/09/11 03:58:17;;;;;;;34.90;19.55;;;;;;;;;;5092206;28;20465;-78
2022/09/11 04:00:44;;;;;;;29.30;17.27;;;;;;;;;;5092208;28;20027;-79
2022/09/11 04:03:11;;;;;;;30.58;17.33;;;;;;;;;;5092161;28;20343;-78
2022/09/11 04:05:37;;;;;;;32.95;17.92;;;;;;;;;;5073831;28;20016;-79
2022/09/11 04:08:03;;;;;;;34.40;19.75;;;;;;;;;;5073758;28;20086;-78
2022/09/11 04:10:31;;;;;;;28.48;17.67;;;;;;;;;;5092256;28;20052;-78
2022/09/11 04:12:57;;;;;;;35.10;17.33;;;;;;;;;;5091821;28;20052;-79
2022/09/11 04:15:23;;;;;;;42.50;20.60;;;;;;;;;;5092033;28;20024;-79
2022/09/11 04:17:49;;;;;;;38.28;19.45;;;;;;;;;;5091833;28;20073;-78
2022/09/11 04:20:15;;;;;;;37.47;19.48;;;;;;;;;;5092106;28;20032;-79
2022/09/11 04:22:42;;;;;;;44.33;18.25;;;;;;;;;;5091890;28;20114;-79
2022/09/11 04:25:09;;;;;;;78.47;23.08;;;;;;;;;;5091974;28;20028;-79
2022/09/11 04:27:35;;;;;;;45.58;19.65;;;;;;;;;;5104828;28;20030;-79
2022/09/11 04:30:01;;;;;;;47.10;21.83;;;;;;;;;;5112116;28;20051;-79
2022/09/11 04:32:28;;;;;;;32.20;19.25;;;;;;;;;;5112009;28;20031;-78
2022/09/11 04:34:55;;;;;;;33.90;18.63;;;;;;;;;;5112293;28;20030;-79
2022/09/11 04:37:21;;;;;;;40.88;19.45;;;;;;;;;;5112000;28;20020;-79
2022/09/11 04:39:47;;;;;;;69.97;23.45;;;;;;;;;;5112140;28;20057;-78
2022/09/11 04:42:13;;;;;;;58.08;21.17;;;;;;;;;;5112107;28;20024;-78
2022/09/11 04:44:40;;;;;;;32.53;18.02;;;;;;;;;;5112087;28;20024;-79
2022/09/11 04:47:06;;;;;;;36.17;19.52;;;;;;;;;;5112030;28;20013;-78
2022/09/11 04:49:32;;;;;;;27.35;17.60;;;;;;;;;;5112025;28;20103;-78
2022/09/11 04:52:04;;;;;;;66.32;19.35;;;;;;;;;;5093844;28;20654;-78
2022/09/11 04:54:32;;;;;;;;;;;;;;;;;;5109577;28;20028;-79
2022/09/11 04:57:00;;;;;;;33.80;17.23;;;;;;;;;;5091524;28;20257;-79
2022/09/11 04:59:26;;;;;;;56.28;20.15;;;;;;;;;;5093294;28;20032;-79
2022/09/11 05:01:53;;;;;;;43.58;20.35;;;;;;;;;;5095017;28;20028;-78
2022/09/11 05:04:19;;;;;;;45.40;20.52;;;;;;;;;;5076384;28;20032;-79
2022/09/11 05:06:47;;;;;;;37.95;19.20;;;;;;;;;;5094884;28;20024;-79
2022/09/11 05:09:14;;;;;;;29.95;17.83;;;;;;;;;;5076650;28;20027;-78
2022/09/11 05:11:40;;;;;;;53.55;20.55;;;;;;;;;;5076459;28;20032;-79
2022/09/11 05:14:07;;;;;;;84.03;23.48;;;;;;;;;;5094006;28;20060;-78
2022/09/11 05:16:34;;;;;;;41.67;18.83;;;;;;;;;;5093820;28;20035;-78
2022/09/11 05:19:01;;;;;;;35.85;18.38;;;;;;;;;;5093353;28;20023;-78
2022/09/11 05:21:27;;;;;;;30.60;17.13;;;;;;;;;;5093755;28;20020;-78
2022/09/11 05:23:54;;;;;;;34.50;18.88;;;;;;;;;;5094702;28;20035;-78
2022/09/11 05:26:22;;;;;;;59.63;20.98;;;;;;;;;;5095501;28;20031;-78
2022/09/11 05:28:53;;;;;;;24.85;15.85;;;;;;;;;;5115069;28;20024;-78
2022/09/11 05:31:19;;;;;;;33.72;18.83;;;;;;;;;;5115192;28;20020;-78
2022/09/11 05:33:45;;;;;;;34.55;18.02;;;;;;;;;;5096838;28;20575;-78
2022/09/11 05:36:12;;;;;;;26.08;16.08;;;;;;;;;;5115344;28;20023;-78
2022/09/11 05:38:38;;;;;;;33.40;18.50;;;;;;;;;;5110244;28;20121;-78
2022/09/11 05:41:05;;;;;;;35.13;18.35;;;;;;;;;;5094550;28;20026;-78
2022/09/11 05:43:32;;;;;;;25.55;16.30;;;;;;;;;;5094673;28;20024;-78
2022/09/11 05:45:58;;;;;;;37.05;18.30;;;;;;;;;;5094648;28;20020;-78
2022/09/11 05:48:24;;;;;;;34.28;18.60;;;;;;;;;;5094682;28;20024;-78
2022/09/11 05:50:54;;;;;;;27.55;17.55;;;;;;;;;;5095000;28;20096;-78
2022/09/11 05:53:21;;;;;;;32.40;17.65;;;;;;;;;;5094578;28;20036;-78
2022/09/11 05:55:47;;;;;;;38.58;18.63;;;;;;;;;;5094541;28;20131;-78
2022/09/11 05:58:14;;;;;;;28.30;16.80;;;;;;;;;;5094659;28;20028;-78
2022/09/11 06:00:40;;;;;;;32.08;17.27;;;;;;;;;;5094223;28;20027;-78
2022/09/11 06:03:06;;;;;;;33.53;17.08;;;;;;;;;;5094221;28;20423;-78
2022/09/11 06:05:32;;;;;;;30.40;16.95;;;;;;;;;;5094382;28;20050;-78
2022/09/11 06:08:00;;;;;;;60.15;20.83;;;;;;;;;;5094052;28;20028;-79
2022/09/11 06:10:26;;;;;;;39.30;19.20;;;;;;;;;;5093745;28;20374;-78
2022/09/11 06:12:53;;;;;;;38.40;19.80;;;;;;;;;;5093609;28;20080;-78
2022/09/11 06:15:19;;;;;;;36.72;20.00;;;;;;;;;;5092988;28;20028;-78
2022/09/11 06:17:45;;;;;;;80.93;21.42;;;;;;;;;;5103163;28;20096;-78
2022/09/11 06:20:11;;;;;;;71.07;22.25;;;;;;;;;;5113136;28;20480;-78
2022/09/11 06:22:38;;;;;;;62.47;23.85;;;;;;;;;;5094665;28;20481;-78
2022/09/11 06:25:04;;;;;;;33.92;19.42;;;;;;;;;;5113326;28;20457;-79
2022/09/11 06:27:30;;;;;;;50.58;20.58;;;;;;;;;;5113049;28;20327;-78
2022/09/11 06:29:56;;;;;;;40.33;20.70;;;;;;;;;;5112743;28;20028;-78
2022/09/11 06:32:22;;;;;;;38.05;18.52;;;;;;;;;;5112842;28;20080;-78
2022/09/11 06:34:48;;;;;;;31.65;17.38;;;;;;;;;;5112864;28;20023;-78
2022/09/11 06:37:14;;;;;;;27.35;17.17;;;;;;;;;;5112880;28;20084;-78
2022/09/11 06:39:40;;;;;;;131.73;27.02;;;;;;;;;;5112936;28;20721;-78
2022/09/11 06:42:07;;;;;;;150.93;27.08;;;;;;;;;;5112424;28;20077;-78
2022/09/11 06:44:33;;;;;;;90.53;21.20;;;;;;;;;;5112713;28;20080;-78
2022/09/11 06:46:59;;;;;;;109.32;25.77;;;;;;;;;;5112768;28;20024;-78
2022/09/11 06:49:26;;;;;;;66.90;22.08;;;;;;;;;;5112468;28;20020;-78
2022/09/11 06:51:53;;;;;;;160.43;29.17;;;;;;;;;;5112584;28;20499;-78
2022/09/11 06:54:19;;;;;;;38.00;19.30;;;;;;;;;;5111593;28;20110;-78
2022/09/11 06:56:45;;;;;;;74.85;23.20;;;;;;;;;;5092290;28;20067;-78
2022/09/11 06:59:13;;;;;;;29.52;17.52;;;;;;;;;;5092530;28;20065;-78
2022/09/11 07:01:39;;;;;;;36.42;19.13;;;;;;;;;;5091881;28;20051;-78
2022/09/11 07:04:05;;;;;;;95.18;28.58;;;;;;;;;;5092127;28;20028;-79
2022/09/11 07:06:31;;;;;;;115.40;26.35;;;;;;;;;;5092237;28;20024;-79
2022/09/11 07:09:01;;;;;;;103.72;27.65;;;;;;;;;;5092170;28;20020;-78
2022/09/11 07:11:28;;;;;;;39.53;20.67;;;;;;;;;;5092084;28;20405;-79
2022/09/11 07:13:57;;;;;;;72.97;24.17;;;;;;;;;;5050350;28;1214594;-79
2022/09/11 07:16:24;;;;;;;84.32;23.58;;;;;;;;;;5093074;28;20043;-78
2022/09/11 07:18:50;;;;;;;100.43;25.33;;;;;;;;;;5092804;28;20103;-78
2022/09/11 07:21:18;;;;;;;98.07;21.92;;;;;;;;;;5092225;28;20445;-79
2022/09/11 07:23:47;;;;;;;36.22;19.15;;;;;;;;;;5092682;28;20028;-79
2022/09/11 07:26:13;;;;;;;35.85;17.83;;;;;;;;;;5092713;28;20028;-79
2022/09/11 07:28:39;;;;;;;32.20;18.15;;;;;;;;;;5108220;28;20031;-78
2022/09/11 07:31:09;;;;;;;108.07;22.55;;;;;;;;;;5112798;28;20024;-78
2022/09/11 07:33:36;;;;;;;31.15;18.52;;;;;;;;;;5113004;28;20024;-79
2022/09/11 07:36:12;;;;;;;40.90;18.48;;;;;;;;;;5113081;28;20088;-79
2022/09/11 07:38:41;;;;;;;39.78;19.60;;;;;;;;;;5108226;28;20028;-79
2022/09/11 07:41:08;;;;;;;33.00;17.95;;;;;;;;;;5092386;28;20024;-78
2022/09/11 07:43:35;;;;;;;31.10;17.05;;;;;;;;;;5092352;28;20384;-79
2022/09/11 07:46:01;;;;;;;31.45;17.50;;;;;;;;;;5092397;28;20020;-79
2022/09/11 07:48:28;;;;;;;36.30;19.38;;;;;;;;;;5092341;28;20467;-79
2022/09/11 07:50:54;;;;;;;35.88;19.13;;;;;;;;;;5092515;28;20027;-79
2022/09/11 07:53:21;;;;;;;34.10;19.55;;;;;;;;;;5092149;28;20032;-79
2022/09/11 07:55:47;;;;;;;36.60;19.23;;;;;;;;;;5092171;28;20028;-79
2022/09/11 07:58:13;;;;;;;40.33;21.60;;;;;;;;;;5092072;28;20027;-79
2022/09/11 08:00:39;;;;;;;33.10;18.63;;;;;;;;;;5092113;28;20484;-79
2022/09/11 08:03:05;;;;;;;39.22;21.98;;;;;;;;;;5091798;28;20032;-79
2022/09/11 08:05:31;;;;;;;33.55;20.70;;;;;;;;;;5092363;28;20024;-79
2022/09/11 08:07:57;;;;;;;31.65;19.55;;;;;;;;;;5092228;28;20035;-79
2022/09/11 08:10:23;;;;;;;36.15;21.13;;;;;;;;;;5091938;28;20045;-79
2022/09/11 08:12:51;;;;;;;36.78;21.23;;;;;;;;;;5092001;28;20478;-79
2022/09/11 08:15:18;;;;;;;40.50;23.70;;;;;;;;;;5091851;28;20028;-79
2022/09/11 08:17:44;;;;;;;40.50;22.50;;;;;;;;;;5102171;28;20103;-79
2022/09/11 08:20:10;;;;;;;35.30;21.48;;;;;;;;;;5112242;28;20051;-79
2022/09/11 08:22:36;;;;;;;38.75;22.92;;;;;;;;;;5112148;28;20105;-79
2022/09/11 08:25:02;;;;;;;36.30;21.27;;;;;;;;;;5112276;28;20038;-79
2022/09/11 08:27:28;;;;;;;34.42;22.25;;;;;;;;;;5112278;28;20098;-79
2022/09/11 08:29:54;;;;;;;37.75;20.92;;;;;;;;;;5111987;28;20108;-79
2022/09/11 08:32:20;;;;;;;34.15;21.73;;;;;;;;;;5112074;28;20081;-79
2022/09/11 08:34:46;;;;;;;34.75;21.95;;;;;;;;;;5112300;28;20489;-79
2022/09/11 08:37:13;;;;;;;35.45;22.48;;;;;;;;;;5112303;28;20042;-79
2022/09/11 08:39:39;;;;;;;37.75;23.77;;;;;;;;;;5112136;28;20026;-79
2022/09/11 08:42:05;;;;;;;35.35;22.05;;;;;;;;;;5112068;28;20031;-79
2022/09/11 08:44:49;;;;;;;32.88;21.60;;;;;;;;;;5111984;28;20043;-80
2022/09/11 08:47:17;;;;;;;36.28;22.48;;;;;;;;;;5112030;28;20461;-80
2022/09/11 08:49:47;;;;;;;30.58;21.40;;;;;;;;;;5093874;28;20088;-79
2022/09/11 08:52:15;;;;;;;30.88;21.88;;;;;;;;;;5112504;28;20071;-79
2022/09/11 08:54:42;;;;;;;31.92;21.63;;;;;;;;;;5107494;28;20478;-79
2022/09/11 08:57:11;;;;;;;31.00;21.42;;;;;;;;;;5091502;28;20347;-79
2022/09/11 08:59:43;;;;;;;29.40;19.45;;;;;;;;;;5091548;28;20051;-80
2022/09/11 09:02:24;;;;;;;26.80;17.38;;;;;;;;;;5091631;28;20470;-79
2022/09/11 09:05:09;;;;;;;32.55;19.02;;;;;;;;;;5091585;28;20029;-79
2022/09/11 09:07:54;;;;;;;27.38;17.73;;;;;;;;;;5073117;28;20430;-80
2022/09/11 09:10:46;;;;;;;23.80;17.92;;;;;;;;;;5091557;28;20059;-80
2022/09/11 09:13:42;;;;;;;22.38;17.10;;;;;;;;;;5091410;28;20516;-80
2022/09/11 09:16:08;;;;;;;21.83;15.43;;;;;;;;;;5074190;28;20036;-80
2022/09/11 09:18:40;;;;;;;24.60;17.30;;;;;;;;;;5091370;28;20024;-79
2022/09/11 09:21:27;;;;;;;22.73;16.38;;;;;;;;;;5091326;28;20027;-80
2022/09/11 09:23:57;;;;;;;23.65;15.80;;;;;;;;;;5091327;28;20412;-79
2022/09/11 09:26:26;;;;;;;18.27;14.02;;;;;;;;;;5091369;28;20020;-79
2022/09/11 09:28:54;;;;;;;21.23;15.00;;;;;;;;;;5104569;28;20081;-79
2022/09/11 09:31:21;;;;;;;16.50;10.73;;;;;;;;;;5111782;28;20016;-80
2022/09/11 09:34:00;;;;;;;16.73;10.85;;;;;;;;;;5111814;28;20027;-80
2022/09/11 09:36:30;;;;;;;19.45;12.40;;;;;;;;;;5111695;28;20392;-79
2022/09/11 09:38:57;;;;;;;15.30;10.93;;;;;;;;;;5104782;28;20028;-80
2022/09/11 09:41:39;;;;;;;14.90;11.18;;;;;;;;;;5091254;28;20032;-79
2022/09/11 09:44:24;;;;;;;17.02;11.18;;;;;;;;;;5074117;28;20032;-80
2022/09/11 09:46:52;;;;;;;15.88;10.77;;;;;;;;;;5094999;28;20028;-80
2022/09/11 09:49:24;;;;;;;11.80;8.80;;;;;;;;;;5076849;28;20358;-80
2022/09/11 09:51:51;;;;;;;14.13;9.60;;;;;;;;;;5095051;28;20039;-80
2022/09/11 09:54:19;;;;;;;12.93;8.70;;;;;;;;;;5094954;28;20116;-80
2022/09/11 09:56:56;;;;;;;12.27;9.13;;;;;;;;;;5094893;28;20020;-80
2022/09/11 09:59:34;;;;;;;11.52;8.50;;;;;;;;;;5094780;28;20020;-80
2022/09/11 10:02:00;;;;;;;10.95;7.72;;;;;;;;;;5075953;28;20087;-80
2022/09/11 10:04:29;;;;;;;13.20;6.05;;;;;;;;;;5094629;28;20022;-79
2022/09/11 10:07:17;;;;;;;11.30;7.25;;;;;;;;;;5094639;28;20070;-80
2022/09/11 10:09:48;;;;;;;8.85;5.18;;;;;;;;;;5094581;28;20031;-79
2022/09/11 10:12:20;;;;;;;15.45;7.50;;;;;;;;;;5094523;28;20398;-80
2022/09/11 10:14:50;;;;;;;12.35;6.55;;;;;;;;;;5094467;28;20119;-80
2022/09/11 10:17:20;;;;;;;10.32;6.22;;;;;;;;;;5100682;28;20016;-80
2022/09/11 10:19:47;;;;;;;10.75;6.18;;;;;;;;;;5114635;28;20437;-80
2022/09/11 10:22:21;;;;;;;8.52;5.93;;;;;;;;;;5114905;28;20073;-80
2022/09/11 10:25:06;;;;;;;10.85;6.03;;;;;;;;;;5114603;28;20498;-80
2022/09/11 10:27:35;;;;;;;7.82;5.57;;;;;;;;;;5114991;28;20031;-80
2022/09/11 10:30:02;;;;;;;12.35;6.50;;;;;;;;;;5094278;28;20430;-80
2022/09/11 10:32:28;;;;;;;10.25;6.53;;;;;;;;;;5094304;28;20089;-80
2022/09/11 10:34:55;;;;;;;12.40;7.10;;;;;;;;;;5094224;28;20032;-80
2022/09/11 10:37:29;;;;;;;11.63;6.95;;;;;;;;;;5094525;28;20047;-80
2022/09/11 10:40:02;;;;;;;10.60;6.30;;;;;;;;;;5094313;28;20028;-80
2022/09/11 10:42:30;;;;;;;8.95;5.88;;;;;;;;;;5094064;28;20166;-80
2022/09/11 10:45:07;;;;;;;9.02;5.72;;;;;;;;;;5094160;28;20016;-80
2022/09/11 10:47:33;;;;;;;12.95;6.28;;;;;;;;;;5093946;28;20020;-80
2022/09/11 10:50:17;;;;;;;11.95;5.82;;;;;;;;;;5094025;28;20028;-80
2022/09/11 10:53:02;;;;;;;7.88;5.88;;;;;;;;;;5094158;28;20039;-80
2022/09/11 10:55:35;;;;;;;9.65;6.43;;;;;;;;;;5103960;28;20028;-80
2022/09/11 10:58:10;;;;;;;10.68;5.90;;;;;;;;;;5112793;28;20438;-80
2022/09/11 11:00:37;;;;;;;9.32;5.68;;;;;;;;;;5113384;28;20045;-80
2022/09/11 11:03:04;;;;;;;11.75;5.75;;;;;;;;;;5113492;28;20077;-80
2022/09/11 11:05:30;;;;;;;9.90;4.93;;;;;;;;;;5113486;28;20088;-80
2022/09/11 11:08:05;;;;;;;8.27;5.70;;;;;;;;;;5113342;28;20032;-80
2022/09/11 11:10:47;;;;;;;9.45;6.30;;;;;;;;;;5113464;28;20054;-80
2022/09/11 11:13:28;;;;;;;9.75;7.03;;;;;;;;;;5113638;28;20120;-80
2022/09/11 11:15:57;;;;;;;7.77;5.70;;;;;;;;;;5113739;28;20019;-80
2022/09/11 11:18:30;;;;;;;10.07;5.72;;;;;;;;;;5113459;28;20023;-80
2022/09/11 11:21:01;;;;;;;8.30;5.45;;;;;;;;;;5113519;28;20027;-80
2022/09/11 11:23:30;;;;;;;7.67;5.47;;;;;;;;;;5113585;28;20032;-81
2022/09/11 11:26:09;;;;;;;9.32;4.85;;;;;;;;;;5113487;28;20097;-80
2022/09/11 11:28:50;;;;;;;9.38;4.60;;;;;;;;;;5113541;28;20015;-80
2022/09/11 11:31:19;;;;;;;8.18;4.05;;;;;;;;;;5113493;28;20034;-80
2022/09/11 11:34:02;;;;;;;9.35;4.35;;;;;;;;;;5113506;28;20183;-80
2022/09/11 11:36:33;;;;;;;6.43;4.07;;;;;;;;;;5113402;28;20393;-80
2022/09/11 11:39:00;;;;;;;7.33;3.70;;;;;;;;;;5113484;28;20031;-81
2022/09/11 11:41:29;;;;;;;12.35;4.50;;;;;;;;;;5095246;28;20069;-81
2022/09/11 11:43:56;;;;;;;6.70;4.07;;;;;;;;;;5095061;28;20473;-80
2022/09/11 11:46:26;;;;;;;8.00;4.00;;;;;;;;;;5113283;28;20038;-80
2022/09/11 11:48:57;;;;;;;9.45;3.03;;;;;;;;;;5113311;28;20102;-80
2022/09/11 11:51:27;;;;;;;4.93;2.63;;;;;;;;;;5094988;28;20019;-81
2022/09/11 11:54:03;;;;;;;4.72;1.88;;;;;;;;;;5113277;28;20028;-80
2022/09/11 11:56:47;;;;;;;3.65;2.13;;;;;;;;;;5113255;28;20023;-81
2022/09/11 11:59:30;;;;;;;5.32;2.20;;;;;;;;;;5113032;28;20076;-81
2022/09/11 12:02:10;;;;;;;3.28;1.90;;;;;;;;;;5112907;28;20034;-81
2022/09/11 12:04:43;;;;;;;4.10;2.05;;;;;;;;;;5112981;28;20030;-81
2022/09/11 12:07:24;;;;;;;5.22;2.10;;;;;;;;;;5112738;28;20110;-81
2022/09/11 12:09:51;;;;;;;5.88;2.50;;;;;;;;;;5094355;28;20030;-81
2022/09/11 12:12:18;;;;;;;5.68;2.00;;;;;;;;;;5112941;28;20131;-81
2022/09/11 12:14:51;;;;;;;4.55;2.47;;;;;;;;;;5112985;28;20023;-81
2022/09/11 12:17:17;;;;;;;5.35;2.15;;;;;;;;;;5108204;28;20024;-81
2022/09/11 12:20:02;;;;;;;6.57;2.17;;;;;;;;;;5092255;28;20104;-81
2022/09/11 12:22:37;;;;;;;6.85;2.00;;;;;;;;;;5092402;28;20057;-80
2022/09/11 12:25:04;;;;;;;8.57;2.55;;;;;;;;;;5093309;28;20028;-80
2022/09/11 12:27:32;;;;;;;5.93;2.63;;;;;;;;;;5092315;28;20095;-81
2022/09/11 12:30:07;;;;;;;8.45;2.10;;;;;;;;;;5107977;28;20019;-81
2022/09/11 12:32:41;;;;;;;3.58;1.70;;;;;;;;;;5112519;28;20034;-81
2022/09/11 12:35:19;;;;;;;3.33;2.17;;;;;;;;;;5112558;28;20023;-81
2022/09/11 12:38:05;;;;;;;4.50;1.98;;;;;;;;;;5112701;28;20027;-81
2022/09/11 12:40:34;;;;;;;3.25;1.80;;;;;;;;;;5094899;28;20062;-81
2022/09/11 12:43:06;;;;;;;5.78;1.90;;;;;;;;;;5112594;28;20023;-81
2022/09/11 12:45:37;;;;;;;7.45;2.08;;;;;;;;;;5112280;28;20489;-81
2022/09/11 12:48:07;;;;;;;5.15;2.20;;;;;;;;;;5112400;28;20024;-81
2022/09/11 12:50:34;;;;;;;4.00;1.60;;;;;;;;;;5112689;28;20043;-81
2022/09/11 12:53:04;;;;;;;6.60;1.83;;;;;;;;;;5112511;28;20028;-81
2022/09/11 12:55:48;;;;;;;4.72;1.70;;;;;;;;;;5112232;28;20027;-81
2022/09/11 12:58:17;;;;;;;5.80;1.88;;;;;;;;;;5112368;28;20099;-81
2022/09/11 13:00:46;;;;;;;3.70;1.73;;;;;;;;;;5112499;28;20027;-81
2022/09/11 13:03:23;;;;;;;3.67;1.65;;;;;;;;;;5112375;28;20028;-81
2022/09/11 13:05:54;;;;;;;4.63;2.00;;;;;;;;;;5112327;28;20035;-81
2022/09/11 13:08:22;;;;;;;3.10;1.48;;;;;;;;;;5112437;28;20016;-81
2022/09/11 13:10:49;;;;;;;4.68;1.80;;;;;;;;;;5093733;28;20031;-81
2022/09/11 13:13:33;;;;;;;9.23;1.60;;;;;;;;;;5112088;28;20043;-81
2022/09/11 13:16:16;;;;;;;3.13;1.80;;;;;;;;;;5112568;28;20016;-81
2022/09/11 13:18:43;;;;;;;4.63;2.00;;;;;;;;;;5112105;28;20020;-81
2022/09/11 13:21:13;;;;;;;2.10;1.65;;;;;;;;;;5115564;28;20458;-81
2022/09/11 13:23:41;;;;;;;4.95;2.08;;;;;;;;;;5116162;28;20023;-81
2022/09/11 13:26:11;;;;;;;4.55;2.08;;;;;;;;;;5116456;28;20123;-81
2022/09/11 13:28:43;;;;;;;4.75;1.98;;;;;;;;;;5115928;28;20024;-81
2022/09/11 13:31:20;;;;;;;3.33;1.63;;;;;;;;;;5115803;28;20101;-80
2022/09/11 13:33:50;;;;;;;2.95;1.90;;;;;;;;;;5116084;28;20457;-81
2022/09/11 13:36:18;;;;;;;4.93;2.53;;;;;;;;;;5116051;28;20466;-81
2022/09/11 13:38:48;;;;;;;5.75;2.58;;;;;;;;;;5115795;28;20090;-81
2022/09/11 13:41:17;;;;;;;3.10;2.15;;;;;;;;;;5116014;28;20027;-81
2022/09/11 13:43:49;;;;;;;5.65;2.50;;;;;;;;;;5097627;28;20015;-81
2022/09/11 13:46:15;;;;;;;4.53;2.60;;;;;;;;;;5115832;28;20488;-81
2022/09/11 13:48:42;;;;;;;5.97;3.00;;;;;;;;;;5097007;28;20024;-80
2022/09/11 13:51:19;;;;;;;3.58;2.33;;;;;;;;;;5115464;28;20020;-80
2022/09/11 13:53:46;;;;;;;6.50;2.92;;;;;;;;;;5115441;28;20047;-80
2022/09/11 13:56:35;;;;;;;7.05;2.70;;;;;;;;;;5115371;28;20035;-80
2022/09/11 13:59:21;;;;;;;4.65;2.40;;;;;;;;;;5076850;28;20126;-81
2022/09/11 14:01:55;;;;;;;3.65;2.38;;;;;;;;;;5115140;28;20036;-81
2022/09/11 14:04:21;;;;;;;4.93;2.33;;;;;;;;;;5115285;28;20027;-81
2022/09/11 14:06:47;;;;;;;6.38;2.40;;;;;;;;;;5115730;28;20020;-81
2022/09/11 14:09:19;;;;;;;6.82;2.53;;;;;;;;;;5115512;28;20020;-81
2022/09/11 14:11:45;;;;;;;6.57;2.28;;;;;;;;;;5115411;28;20173;-81
2022/09/11 14:14:14;;;;;;;4.03;2.15;;;;;;;;;;5115485;28;20477;-81
2022/09/11 14:16:48;;;;;;;3.47;2.13;;;;;;;;;;5115025;28;20027;-81
2022/09/11 14:19:25;;;;;;;5.45;2.30;;;;;;;;;;5115145;28;20465;-81
2022/09/11 14:21:52;;;;;;;10.45;3.83;;;;;;;;;;5115034;28;20020;-81
2022/09/11 14:24:33;;;;;;;4.07;2.28;;;;;;;;;;5115034;28;20034;-82
2022/09/11 14:27:00;;;;;;;4.67;2.60;;;;;;;;;;5115053;28;20479;-81
2022/09/11 14:29:30;;;;;;;7.07;2.30;;;;;;;;;;5114880;28;20350;-81
2022/09/11 14:32:15;;;;;;;2.92;2.10;;;;;;;;;;5114671;28;20035;-82
2022/09/11 14:34:41;;;;;;;5.35;2.30;;;;;;;;;;5115101;28;20023;-81
2022/09/11 14:37:16;;;;;;;6.30;2.33;;;;;;;;;;5114823;28;20020;-81
2022/09/11 14:39:47;;;;;;;4.78;1.70;;;;;;;;;;5096494;28;20055;-81